Station Historical Data
Daily Summary for November 24, 2017 Units:  English    Metric   Both
« Previous Day
Next Day »
Daily Weekly Monthly Yearly Custom
  High: Low: Average:
Temperature: 51.4 °F 34.2 °F 44.5 °F
Dew Point: 34.6 °F 26.0 °F 28.7 °F
Humidity: 74% 40% 55%
Wind Speed: 18.0mph 0.0mph 5.7mph
Wind Gust: 23.0mph - -
Wind- - SW
Pressure: 29.98 in 29.63 in -
Precipitation: 0.00 in    
Historical Graphs
 
 
Tabular Data for November 24, 2017
Time Temperature Dew Point Pressure Wind Wind Speed Wind Gust Humidity Rainfall Rate (Hourly)
00:04 38.2 °F 27.8 °F 29.98 in SW 4.0 mph 11.0 mph 66% 0.00 in
00:09 38.2 °F 27.8 °F 29.98 in SW 3.0 mph 11.0 mph 66% 0.00 in
00:14 38.5 °F 28.9 °F 29.98 in SW 3.0 mph 8.0 mph 68% 0.00 in
00:24 39.6 °F 30.6 °F 29.97 in West 2.0 mph 6.0 mph 70% 0.00 in
00:39 39.8 °F 30.1 °F 29.97 in West 5.0 mph 12.0 mph 68% 0.00 in
00:44 39.8 °F 30.5 °F 29.97 in West 3.0 mph 9.0 mph 69% 0.00 in
00:54 39.6 °F 29.9 °F 29.97 in West 4.0 mph 10.0 mph 68% 0.00 in
00:59 39.6 °F 29.5 °F 29.97 in West 4.0 mph 10.0 mph 67% 0.00 in
01:04 39.5 °F 29.1 °F 29.97 in West 4.0 mph 8.0 mph 66% 0.00 in
01:09 39.4 °F 28.2 °F 29.97 in West 4.0 mph 10.0 mph 64% 0.00 in
01:14 39.4 °F 27.8 °F 29.97 in West 4.0 mph 10.0 mph 63% 0.00 in
01:19 39.4 °F 27.8 °F 29.97 in WNW 3.0 mph 8.0 mph 63% 0.00 in
01:24 39.3 °F 27.7 °F 29.97 in WSW 3.0 mph 8.0 mph 63% 0.00 in
01:34 39.3 °F 27.7 °F 29.97 in SW 3.0 mph 4.0 mph 63% 0.00 in
01:44 39.2 °F 27.7 °F 29.97 in WSW 2.0 mph 4.0 mph 63% 0.00 in
01:54 39.0 °F 27.8 °F 29.97 in SW 2.0 mph 7.0 mph 64% 0.00 in
01:59 39.0 °F 28.2 °F 29.97 in SSW 3.0 mph 7.0 mph 65% 0.00 in
02:04 38.8 °F 28.8 °F 29.97 in SSW 1.0 mph 4.0 mph 67% 0.00 in
02:09 38.6 °F 28.6 °F 29.97 in SSW 2.0 mph 4.0 mph 67% 0.00 in
02:14 38.7 °F 28.7 °F 29.97 in WSW 2.0 mph 5.0 mph 67% 0.00 in
02:19 38.8 °F 28.4 °F 29.97 in WSW 2.0 mph 4.0 mph 66% 0.00 in
02:29 38.9 °F 28.5 °F 29.97 in SW 3.0 mph 7.0 mph 66% 0.00 in
02:34 38.9 °F 28.1 °F 29.97 in SW 3.0 mph 7.0 mph 65% 0.00 in
02:44 39.0 °F 27.8 °F 29.97 in SW 5.0 mph 8.0 mph 64% 0.00 in
02:49 39.1 °F 27.9 °F 29.97 in WSW 2.0 mph 7.0 mph 64% 0.00 in
02:54 39.1 °F 28.3 °F 29.97 in SSW 2.0 mph 5.0 mph 65% 0.00 in
02:59 39.0 °F 28.6 °F 29.97 in SW 2.0 mph 5.0 mph 66% 0.00 in
03:09 38.7 °F 28.7 °F 29.96 in Calm   4.0 mph 67% 0.00 in
03:24 38.5 °F 28.9 °F 29.96 in Calm   3.0 mph 68% 0.00 in
03:29 38.4 °F 28.4 °F 29.96 in SW 1.0 mph 4.0 mph 67% 0.00 in
03:34 38.3 °F 28.7 °F 29.96 in SW 2.0 mph 4.0 mph 68% 0.00 in
03:39 38.2 °F 28.6 °F 29.96 in SW 2.0 mph 4.0 mph 68% 0.00 in
03:44 38.2 °F 28.6 °F 29.95 in SSW 3.0 mph 4.0 mph 68% 0.00 in
03:49 38.2 °F 28.6 °F 29.95 in SSW 3.0 mph 5.0 mph 68% 0.00 in
03:54 38.1 °F 28.5 °F 29.95 in SSW 2.0 mph 5.0 mph 68% 0.00 in
03:59 38.1 °F 28.5 °F 29.95 in SSW 2.0 mph 5.0 mph 68% 0.00 in
04:09 38.1 °F 28.5 °F 29.95 in SSW 2.0 mph 6.0 mph 68% 0.00 in
04:14 38.1 °F 28.8 °F 29.95 in SSW 2.0 mph 4.0 mph 69% 0.00 in
04:19 38.1 °F 28.8 °F 29.95 in WSW 4.0 mph 5.0 mph 69% 0.00 in
04:24 38.2 °F 28.9 °F 29.95 in South 2.0 mph 8.0 mph 69% 0.00 in
04:29 38.3 °F 29.0 °F 29.95 in SW 2.0 mph 7.0 mph 69% 0.00 in
04:44 38.4 °F 29.1 °F 29.95 in SSW 2.0 mph 5.0 mph 69% 0.00 in
04:49 38.3 °F 29.0 °F 29.95 in SSW 3.0 mph 8.0 mph 69% 0.00 in
04:54 38.2 °F 28.9 °F 29.95 in Calm   8.0 mph 69% 0.00 in
04:59 38.1 °F 28.8 °F 29.95 in SW 3.0 mph 7.0 mph 69% 0.00 in
05:04 38.0 °F 28.4 °F 29.95 in SSW 3.0 mph 7.0 mph 68% 0.00 in
05:09 37.8 °F 28.2 °F 29.95 in SW 3.0 mph 8.0 mph 68% 0.00 in
05:14 37.7 °F 28.1 °F 29.95 in SSW 5.0 mph 7.0 mph 68% 0.00 in
05:19 37.6 °F 28.0 °F 29.95 in SSW 1.0 mph 7.0 mph 68% 0.00 in
05:24 37.6 °F 28.0 °F 29.95 in South 3.0 mph 10.0 mph 68% 0.00 in
05:29 37.6 °F 28.0 °F 29.95 in SSW 4.0 mph 11.0 mph 68% 0.00 in
05:34 37.7 °F 28.1 °F 29.94 in SSW 4.0 mph 11.0 mph 68% 0.00 in
05:39 37.7 °F 28.1 °F 29.94 in SW 4.0 mph 9.0 mph 68% 0.00 in
05:44 37.6 °F 28.0 °F 29.94 in SW 3.0 mph 9.0 mph 68% 0.00 in
05:49 37.7 °F 28.1 °F 29.94 in SW 4.0 mph 8.0 mph 68% 0.00 in
05:54 37.6 °F 28.0 °F 29.94 in SW 5.0 mph 7.0 mph 68% 0.00 in
05:59 37.6 °F 28.0 °F 29.94 in SW 2.0 mph 9.0 mph 68% 0.00 in
06:04 37.5 °F 27.9 °F 29.93 in SSW 4.0 mph 9.0 mph 68% 0.00 in
06:09 37.4 °F 27.8 °F 29.93 in SSW 4.0 mph 9.0 mph 68% 0.00 in
06:14 37.2 °F 27.6 °F 29.93 in SSW 3.0 mph 9.0 mph 68% 0.00 in
06:19 36.9 °F 27.3 °F 29.93 in SW 1.0 mph 8.0 mph 68% 0.00 in
06:24 36.6 °F 27.4 °F 29.93 in SW 3.0 mph 6.0 mph 69% 0.00 in
06:29 36.1 °F 26.9 °F 29.93 in South 2.0 mph 6.0 mph 69% 0.00 in
06:34 35.7 °F 26.5 °F 29.94 in SSW 3.0 mph 6.0 mph 69% 0.00 in
06:39 35.4 °F 26.6 °F 29.94 in SSW 3.0 mph 5.0 mph 70% 0.00 in
06:44 35.1 °F 26.3 °F 29.93 in SSW 2.0 mph 5.0 mph 70% 0.00 in
06:49 34.8 °F 26.4 °F 29.93 in SSW 2.0 mph 6.0 mph 71% 0.00 in
06:54 34.6 °F 26.5 °F 29.93 in SSW 3.0 mph 7.0 mph 72% 0.00 in
06:59 34.5 °F 26.4 °F 29.93 in SW 4.0 mph 5.0 mph 72% 0.00 in
07:04 34.5 °F 26.4 °F 29.93 in SSW 2.0 mph 5.0 mph 72% 0.00 in
07:09 34.4 °F 26.6 °F 29.93 in SSW 2.0 mph 7.0 mph 73% 0.00 in
07:14 34.4 °F 26.6 °F 29.93 in SSW 2.0 mph 7.0 mph 73% 0.00 in
07:19 34.5 °F 26.7 °F 29.93 in SW 4.0 mph 7.0 mph 73% 0.00 in
07:24 34.4 °F 26.6 °F 29.92 in SSW 5.0 mph 6.0 mph 73% 0.00 in
07:29 34.4 °F 26.6 °F 29.92 in SSW 3.0 mph 7.0 mph 73% 0.00 in
07:34 34.4 °F 26.6 °F 29.92 in SSW 3.0 mph 7.0 mph 73% 0.00 in
07:39 34.3 °F 26.5 °F 29.92 in South 2.0 mph 6.0 mph 73% 0.00 in
07:44 34.2 °F 26.4 °F 29.92 in South 2.0 mph 5.0 mph 73% 0.00 in
07:49 34.3 °F 26.9 °F 29.92 in South 3.0 mph 7.0 mph 74% 0.00 in
07:54 34.4 °F 26.6 °F 29.92 in South 3.0 mph 7.0 mph 73% 0.00 in
07:59 34.6 °F 26.8 °F 29.92 in SSW 3.0 mph 7.0 mph 73% 0.00 in
08:04 34.8 °F 27.0 °F 29.92 in South 3.0 mph 8.0 mph 73% 0.00 in
08:09 35.1 °F 27.0 °F 29.92 in South 5.0 mph 8.0 mph 72% 0.00 in
08:14 35.3 °F 27.2 °F 29.92 in SSW 6.0 mph 6.0 mph 72% 0.00 in
08:19 35.5 °F 27.0 °F 29.92 in South 8.0 mph 10.0 mph 71% 0.00 in
08:24 35.8 °F 27.0 °F 29.92 in South 3.0 mph 10.0 mph 70% 0.00 in
08:29 36.2 °F 27.0 °F 29.92 in SW 1.0 mph 7.0 mph 69% 0.00 in
08:34 36.6 °F 27.0 °F 29.92 in South 3.0 mph 9.0 mph 68% 0.00 in
08:39 37.0 °F 27.4 °F 29.91 in SSW 4.0 mph 9.0 mph 68% 0.00 in
08:44 37.4 °F 27.4 °F 29.91 in SSW 4.0 mph 9.0 mph 67% 0.00 in
08:49 38.0 °F 28.0 °F 29.91 in SSW 4.0 mph 7.0 mph 67% 0.00 in
08:54 38.6 °F 28.2 °F 29.91 in SSW 3.0 mph 8.0 mph 66% 0.00 in
08:59 39.3 °F 28.1 °F 29.91 in SSW 4.0 mph 10.0 mph 64% 0.00 in
09:04 39.9 °F 28.3 °F 29.91 in SSW 5.0 mph 10.0 mph 63% 0.00 in
09:09 40.2 °F 27.8 °F 29.90 in SSW 5.0 mph 13.0 mph 61% 0.00 in
09:14 40.5 °F 27.3 °F 29.90 in SSW 6.0 mph 13.0 mph 59% 0.00 in
09:19 40.6 °F 27.0 °F 29.90 in SW 13.0 mph 17.0 mph 58% 0.00 in
09:24 40.8 °F 27.2 °F 29.90 in SSW 4.0 mph 14.0 mph 58% 0.00 in
09:29 41.3 °F 27.2 °F 29.90 in SW 4.0 mph 12.0 mph 57% 0.00 in
09:34 41.7 °F 27.1 °F 29.90 in South 5.0 mph 15.0 mph 56% 0.00 in
09:39 41.8 °F 26.8 °F 29.90 in SSW 7.0 mph 17.0 mph 55% 0.00 in
09:44 42.0 °F 26.5 °F 29.90 in SW 8.0 mph 17.0 mph 54% 0.00 in
09:49 42.2 °F 26.7 °F 29.91 in SW 8.0 mph 16.0 mph 54% 0.00 in
09:54 42.3 °F 26.8 °F 29.91 in SW 8.0 mph 16.0 mph 54% 0.00 in
09:59 42.8 °F 27.3 °F 29.91 in SW 7.0 mph 16.0 mph 54% 0.00 in
10:04 42.9 °F 26.5 °F 29.91 in SW 8.0 mph 16.0 mph 52% 0.00 in
10:09 43.3 °F 26.8 °F 29.90 in SSW 4.0 mph 14.0 mph 52% 0.00 in
10:14 43.7 °F 27.2 °F 29.90 in SW 9.0 mph 15.0 mph 52% 0.00 in
10:19 43.9 °F 26.9 °F 29.89 in SW 8.0 mph 15.0 mph 51% 0.00 in
10:24 43.7 °F 27.2 °F 29.89 in SSW 4.0 mph 13.0 mph 52% 0.00 in
10:29 43.7 °F 27.2 °F 29.89 in WSW 7.0 mph 17.0 mph 52% 0.00 in
10:34 44.1 °F 27.6 °F 29.89 in SW 9.0 mph 17.0 mph 52% 0.00 in
10:39 44.3 °F 27.8 °F 29.88 in SW 8.0 mph 15.0 mph 52% 0.00 in
10:44 44.8 °F 27.8 °F 29.88 in SW 7.0 mph 15.0 mph 51% 0.00 in
10:49 45.1 °F 28.0 °F 29.88 in SW 7.0 mph 15.0 mph 51% 0.00 in
10:54 45.2 °F 28.1 °F 29.88 in West 6.0 mph 19.0 mph 51% 0.00 in
10:59 45.3 °F 27.7 °F 29.87 in SW 9.0 mph 19.0 mph 50% 0.00 in
11:04 45.8 °F 28.7 °F 29.87 in SW 9.0 mph 20.0 mph 51% 0.00 in
11:09 46.2 °F 28.6 °F 29.87 in SSW 6.0 mph 17.0 mph 50% 0.00 in
11:14 46.5 °F 28.3 °F 29.87 in WSW 8.0 mph 21.0 mph 49% 0.00 in
11:19 46.8 °F 27.6 °F 29.86 in SSW 7.0 mph 18.0 mph 47% 0.00 in
11:24 47.0 °F 27.3 °F 29.86 in West 18.0 mph 23.0 mph 46% 0.00 in
11:29 47.1 °F 27.4 °F 29.86 in SW 10.0 mph 19.0 mph 46% 0.00 in
11:34 47.3 °F 28.1 °F 29.86 in SW 11.0 mph 19.0 mph 47% 0.00 in
11:39 47.5 °F 27.7 °F 29.86 in WSW 11.0 mph 20.0 mph 46% 0.00 in
11:44 47.5 °F 27.7 °F 29.85 in WSW 12.0 mph 20.0 mph 46% 0.00 in
11:49 47.7 °F 27.9 °F 29.85 in SW 11.0 mph 19.0 mph 46% 0.00 in
11:54 48.0 °F 28.7 °F 29.85 in SW 10.0 mph 18.0 mph 47% 0.00 in
11:59 48.3 °F 28.5 °F 29.84 in SW 9.0 mph 18.0 mph 46% 0.00 in
12:04 48.3 °F 27.9 °F 29.84 in SW 15.0 mph 21.0 mph 45% 0.00 in
12:09 48.5 °F 29.2 °F 29.84 in SW 10.0 mph 21.0 mph 47% 0.00 in
12:14 48.7 °F 28.8 °F 29.84 in WSW 10.0 mph 20.0 mph 46% 0.00 in
12:19 48.6 °F 28.2 °F 29.84 in SW 10.0 mph 20.0 mph 45% 0.00 in
12:24 48.6 °F 28.7 °F 29.83 in SW 11.0 mph 18.0 mph 46% 0.00 in
12:29 48.7 °F 28.8 °F 29.83 in SW 14.0 mph 20.0 mph 46% 0.00 in
12:34 48.7 °F 29.9 °F 29.83 in SSW 11.0 mph 20.0 mph 48% 0.00 in
12:39 49.0 °F 30.7 °F 29.83 in SW 9.0 mph 20.0 mph 49% 0.00 in
12:44 49.4 °F 31.5 °F 29.83 in SW 8.0 mph 16.0 mph 50% 0.00 in
12:49 49.2 °F 30.8 °F 29.83 in WSW 14.0 mph 19.0 mph 49% 0.00 in
12:54 49.4 °F 31.0 °F 29.83 in WSW 9.0 mph 14.0 mph 49% 0.00 in
12:59 49.7 °F 31.3 °F 29.82 in SSW 8.0 mph 15.0 mph 49% 0.00 in
13:04 49.9 °F 32.5 °F 29.82 in WSW 7.0 mph 15.0 mph 51% 0.00 in
13:09 50.2 °F 32.8 °F 29.81 in SW 7.0 mph 15.0 mph 51% 0.00 in
13:14 50.7 °F 31.7 °F 29.81 in WSW 6.0 mph 14.0 mph 48% 0.00 in
13:19 50.0 °F 31.6 °F 29.81 in SW 8.0 mph 19.0 mph 49% 0.00 in
13:24 49.9 °F 32.0 °F 29.80 in WSW 4.0 mph 19.0 mph 50% 0.00 in
13:29 49.9 °F 31.5 °F 29.80 in SE 6.0 mph 22.0 mph 49% 0.00 in
13:34 49.9 °F 32.5 °F 29.80 in WSW 5.0 mph 20.0 mph 51% 0.00 in
13:39 50.0 °F 33.1 °F 29.79 in SW 10.0 mph 20.0 mph 52% 0.00 in
13:44 50.1 °F 33.6 °F 29.79 in WSW 10.0 mph 19.0 mph 53% 0.00 in
13:49 50.3 °F 32.8 °F 29.79 in WSW 9.0 mph 17.0 mph 51% 0.00 in
13:54 50.3 °F 32.8 °F 29.79 in SW 9.0 mph 18.0 mph 51% 0.00 in
13:59 50.5 °F 33.0 °F 29.78 in SW 9.0 mph 18.0 mph 51% 0.00 in
14:04 50.5 °F 32.5 °F 29.78 in SW 13.0 mph 18.0 mph 50% 0.00 in
14:09 50.7 °F 33.2 °F 29.78 in SW 9.0 mph 15.0 mph 51% 0.00 in
14:14 50.7 °F 32.7 °F 29.78 in WSW 8.0 mph 16.0 mph 50% 0.00 in
14:19 51.0 °F 33.0 °F 29.78 in West 8.0 mph 12.0 mph 50% 0.00 in
14:24 51.1 °F 33.6 °F 29.77 in WSW 3.0 mph 12.0 mph 51% 0.00 in
14:29 50.6 °F 33.1 °F 29.77 in WSW 7.0 mph 17.0 mph 51% 0.00 in
14:34 50.4 °F 33.9 °F 29.77 in SW 10.0 mph 16.0 mph 53% 0.00 in
14:39 50.5 °F 34.0 °F 29.77 in SW 6.0 mph 16.0 mph 53% 0.00 in
14:44 50.4 °F 34.4 °F 29.77 in SW 6.0 mph 12.0 mph 54% 0.00 in
14:49 50.6 °F 34.6 °F 29.77 in SW 6.0 mph 12.0 mph 54% 0.00 in
14:54 50.7 °F 34.2 °F 29.76 in SW 7.0 mph 15.0 mph 53% 0.00 in
14:59 50.8 °F 34.3 °F 29.76 in West 5.0 mph 13.0 mph 53% 0.00 in
15:04 50.5 °F 33.5 °F 29.76 in WSW 6.0 mph 16.0 mph 52% 0.00 in
15:09 50.5 °F 34.0 °F 29.75 in SW 7.0 mph 14.0 mph 53% 0.00 in
15:14 50.8 °F 33.8 °F 29.75 in SW 7.0 mph 16.0 mph 52% 0.00 in
15:19 51.0 °F 33.5 °F 29.75 in SSW 10.0 mph 12.0 mph 51% 0.00 in
15:24 51.3 °F 33.3 °F 29.75 in SW 7.0 mph 15.0 mph 50% 0.00 in
15:29 51.4 °F 32.9 °F 29.75 in SW 3.0 mph 14.0 mph 49% 0.00 in
15:34 51.4 °F 32.9 °F 29.75 in SW 10.0 mph 16.0 mph 49% 0.00 in
15:39 51.2 °F 33.2 °F 29.75 in SSW 6.0 mph 12.0 mph 50% 0.00 in
15:44 51.1 °F 33.1 °F 29.75 in SW 7.0 mph 15.0 mph 50% 0.00 in
15:49 51.1 °F 33.6 °F 29.74 in SW 6.0 mph 15.0 mph 51% 0.00 in
15:54 50.9 °F 33.4 °F 29.74 in SW 5.0 mph 13.0 mph 51% 0.00 in
15:59 50.5 °F 33.5 °F 29.74 in SW 6.0 mph 13.0 mph 52% 0.00 in
16:04 50.2 °F 33.7 °F 29.74 in SW 6.0 mph 10.0 mph 53% 0.00 in
16:09 49.9 °F 33.4 °F 29.74 in SSW 5.0 mph 10.0 mph 53% 0.00 in
16:14 49.9 °F 33.4 °F 29.74 in South 3.0 mph 8.0 mph 53% 0.00 in
16:19 50.2 °F 32.8 °F 29.73 in SW 5.0 mph 10.0 mph 51% 0.00 in
16:24 50.3 °F 32.4 °F 29.73 in South 4.0 mph 9.0 mph 50% 0.00 in
16:29 50.3 °F 31.8 °F 29.73 in SSW 2.0 mph 6.0 mph 49% 0.00 in
16:34 50.3 °F 31.3 °F 29.73 in SSW 2.0 mph 8.0 mph 48% 0.00 in
16:39 49.9 °F 31.0 °F 29.73 in South 4.0 mph 5.0 mph 48% 0.00 in
16:44 49.6 °F 30.2 °F 29.73 in SSW 7.0 mph 8.0 mph 47% 0.00 in
16:49 49.7 °F 30.3 °F 29.73 in SSW 5.0 mph 10.0 mph 47% 0.00 in
16:54 49.6 °F 30.2 °F 29.73 in SSW 5.0 mph 11.0 mph 47% 0.00 in
16:59 49.4 °F 30.0 °F 29.73 in SSW 5.0 mph 11.0 mph 47% 0.00 in
17:09 49.1 °F 29.7 °F 29.73 in SSW 5.0 mph 12.0 mph 47% 0.00 in
17:14 49.0 °F 29.6 °F 29.72 in SSW 6.0 mph 12.0 mph 47% 0.00 in
17:19 49.0 °F 29.6 °F 29.72 in SSW 6.0 mph 12.0 mph 47% 0.00 in
17:24 49.0 °F 29.6 °F 29.72 in SSW 6.0 mph 15.0 mph 47% 0.00 in
17:29 48.9 °F 29.5 °F 29.72 in South 9.0 mph 16.0 mph 47% 0.00 in
17:34 49.0 °F 29.1 °F 29.72 in SW 8.0 mph 14.0 mph 46% 0.00 in
17:39 48.9 °F 29.5 °F 29.72 in SSE 11.0 mph 12.0 mph 47% 0.00 in
17:49 48.8 °F 28.9 °F 29.72 in SW 5.0 mph 13.0 mph 46% 0.00 in
17:54 48.6 °F 29.3 °F 29.71 in SSW 6.0 mph 13.0 mph 47% 0.00 in
17:59 48.5 °F 29.2 °F 29.71 in SSW 6.0 mph 12.0 mph 47% 0.00 in
18:04 48.4 °F 29.1 °F 29.71 in SSW 6.0 mph 15.0 mph 47% 0.00 in
18:09 48.4 °F 29.1 °F 29.71 in SSW 6.0 mph 15.0 mph 47% 0.00 in
18:14 48.4 °F 29.1 °F 29.71 in SSW 7.0 mph 15.0 mph 47% 0.00 in
18:19 48.3 °F 28.5 °F 29.72 in SSW 7.0 mph 13.0 mph 46% 0.00 in
18:24 48.3 °F 28.5 °F 29.72 in SSW 6.0 mph 14.0 mph 46% 0.00 in
18:29 48.3 °F 28.5 °F 29.72 in SSW 8.0 mph 13.0 mph 46% 0.00 in
18:34 48.3 °F 28.5 °F 29.71 in SW 14.0 mph 14.0 mph 46% 0.00 in
18:39 48.2 °F 28.4 °F 29.71 in South 4.0 mph 14.0 mph 46% 0.00 in
18:44 48.0 °F 28.7 °F 29.71 in WSW 6.0 mph 15.0 mph 47% 0.00 in
18:49 48.0 °F 28.7 °F 29.71 in WSW 8.0 mph 13.0 mph 47% 0.00 in
18:54 47.9 °F 28.6 °F 29.70 in SSW 7.0 mph 13.0 mph 47% 0.00 in
18:59 48.1 °F 28.3 °F 29.71 in SSW 7.0 mph 15.0 mph 46% 0.00 in
19:04 48.0 °F 28.2 °F 29.71 in SSW 7.0 mph 15.0 mph 46% 0.00 in
19:09 48.0 °F 28.2 °F 29.71 in SSW 7.0 mph 15.0 mph 46% 0.00 in
19:14 47.9 °F 28.1 °F 29.71 in SSW 6.0 mph 15.0 mph 46% 0.00 in
19:19 47.9 °F 28.1 °F 29.71 in SW 6.0 mph 14.0 mph 46% 0.00 in
19:24 47.9 °F 28.1 °F 29.71 in SSW 6.0 mph 14.0 mph 46% 0.00 in
19:29 47.8 °F 28.5 °F 29.71 in SSW 6.0 mph 17.0 mph 47% 0.00 in
19:34 47.8 °F 28.0 °F 29.70 in SSW 7.0 mph 16.0 mph 46% 0.00 in
19:39 47.8 °F 28.0 °F 29.70 in South 7.0 mph 15.0 mph 46% 0.00 in
19:44 47.8 °F 28.0 °F 29.70 in WSW 10.0 mph 17.0 mph 46% 0.00 in
19:49 47.8 °F 28.0 °F 29.70 in SW 6.0 mph 15.0 mph 46% 0.00 in
19:54 47.8 °F 28.0 °F 29.70 in SSW 7.0 mph 15.0 mph 46% 0.00 in
19:59 47.6 °F 27.8 °F 29.70 in SSW 7.0 mph 16.0 mph 46% 0.00 in
20:04 47.7 °F 27.9 °F 29.70 in SSW 7.0 mph 17.0 mph 46% 0.00 in
20:09 47.8 °F 27.5 °F 29.70 in SSW 5.0 mph 15.0 mph 45% 0.00 in
20:14 47.8 °F 27.5 °F 29.70 in SW 3.0 mph 17.0 mph 45% 0.00 in
20:19 47.8 °F 27.5 °F 29.70 in SW 12.0 mph 14.0 mph 45% 0.00 in
20:24 47.9 °F 27.6 °F 29.70 in SSW 7.0 mph 16.0 mph 45% 0.00 in
20:29 47.9 °F 27.6 °F 29.70 in SSW 7.0 mph 16.0 mph 45% 0.00 in
20:34 47.8 °F 27.5 °F 29.70 in SSW 7.0 mph 15.0 mph 45% 0.00 in
20:39 47.8 °F 27.5 °F 29.69 in SSW 6.0 mph 15.0 mph 45% 0.00 in
20:44 47.8 °F 27.5 °F 29.69 in SSW 6.0 mph 18.0 mph 45% 0.00 in
20:49 47.8 °F 26.9 °F 29.69 in SSW 3.0 mph 14.0 mph 44% 0.00 in
20:54 48.0 °F 27.1 °F 29.69 in SSW 7.0 mph 18.0 mph 44% 0.00 in
20:59 48.1 °F 27.2 °F 29.68 in SSW 11.0 mph 17.0 mph 44% 0.00 in
21:04 48.0 °F 27.1 °F 29.68 in SSW 7.0 mph 11.0 mph 44% 0.00 in
21:09 48.1 °F 27.2 °F 29.68 in SW 4.0 mph 16.0 mph 44% 0.00 in
21:14 48.2 °F 27.3 °F 29.68 in SW 6.0 mph 12.0 mph 44% 0.00 in
21:19 48.2 °F 27.3 °F 29.68 in SSW 9.0 mph 13.0 mph 44% 0.00 in
21:24 48.1 °F 26.6 °F 29.68 in SSW 7.0 mph 15.0 mph 43% 0.00 in
21:29 48.3 °F 26.8 °F 29.68 in SSW 7.0 mph 15.0 mph 43% 0.00 in
21:34 48.3 °F 26.8 °F 29.67 in SSW 7.0 mph 13.0 mph 43% 0.00 in
21:39 48.1 °F 26.6 °F 29.67 in SSW 7.0 mph 13.0 mph 43% 0.00 in
21:44 48.0 °F 26.5 °F 29.67 in SSW 6.0 mph 12.0 mph 43% 0.00 in
21:49 48.0 °F 26.5 °F 29.67 in SSW 4.0 mph 16.0 mph 43% 0.00 in
21:54 48.1 °F 26.6 °F 29.66 in South 6.0 mph 13.0 mph 43% 0.00 in
21:59 48.2 °F 26.7 °F 29.66 in South 6.0 mph 19.0 mph 43% 0.00 in
22:04 48.4 °F 26.3 °F 29.66 in South 5.0 mph 15.0 mph 42% 0.00 in
22:09 48.5 °F 26.4 °F 29.66 in South 13.0 mph 15.0 mph 42% 0.00 in
22:19 48.5 °F 26.4 °F 29.65 in SSW 6.0 mph 15.0 mph 42% 0.00 in
22:24 48.5 °F 26.4 °F 29.65 in SSW 6.0 mph 16.0 mph 42% 0.00 in
22:29 48.6 °F 26.5 °F 29.65 in SSW 6.0 mph 16.0 mph 42% 0.00 in
22:34 48.8 °F 26.1 °F 29.65 in SSW 7.0 mph 17.0 mph 41% 0.00 in
22:39 48.9 °F 26.2 °F 29.64 in South 7.0 mph 14.0 mph 41% 0.00 in
22:44 49.0 °F 26.3 °F 29.64 in SSW 7.0 mph 14.0 mph 41% 0.00 in
22:49 49.0 °F 26.3 °F 29.64 in South 13.0 mph 14.0 mph 41% 0.00 in
22:54 49.3 °F 26.0 °F 29.64 in SSW 8.0 mph 14.0 mph 40% 0.00 in
22:59 49.3 °F 26.0 °F 29.64 in SSW 8.0 mph 14.0 mph 40% 0.00 in
23:04 49.4 °F 26.1 °F 29.63 in SSW 8.0 mph 20.0 mph 40% 0.00 in
23:09 49.4 °F 26.1 °F 29.63 in South 6.0 mph 14.0 mph 40% 0.00 in
23:14 49.3 °F 26.0 °F 29.63 in SSW 8.0 mph 17.0 mph 40% 0.00 in
23:19 49.3 °F 26.0 °F 29.63 in SSW 4.0 mph 15.0 mph 40% 0.00 in
23:24 49.2 °F 26.5 °F 29.63 in SSW 6.0 mph 15.0 mph 41% 0.00 in
23:29 49.3 °F 26.6 °F 29.63 in SSW 6.0 mph 15.0 mph 41% 0.00 in
23:34 49.4 °F 26.1 °F 29.63 in SSW 7.0 mph 15.0 mph 40% 0.00 in
23:39 49.4 °F 26.7 °F 29.63 in SSW 6.0 mph 13.0 mph 41% 0.00 in
23:44 49.4 °F 26.1 °F 29.63 in SSW 6.0 mph 13.0 mph 40% 0.00 in
23:49 49.4 °F 26.7 °F 29.63 in SSW 2.0 mph 13.0 mph 41% 0.00 in
23:54 49.4 °F 26.7 °F 29.63 in SSE 4.0 mph 10.0 mph 41% 0.00 in
23:59 49.5 °F 26.7 °F 29.63 in SSW 6.0 mph 11.0 mph 41% 0.00 in
Buffalo, New York, USA
Compliments of Weather Underground - 2.25 mb